Igor I Sikorsky Memorial Airport
KBDR : rendu visible

Aérodrome :











RETROUVEZ-NOUS SUR...

 
LOGIN :

S'inscrire | Disclaimer

   EN    FR    IT 

 









Légende :    VFR   VFR Marginal   IFR   IFR Intensif   IFR Très Intensif
Visi : 
Plafond : 
>= 8 km
>= 3000ft
5 à 8 km
1000 à 3000 ft
1500m à 5 km
500 à 1000 ft
800 à 1500m
200 à 500 ft
< 800m
< 200 ft
Symboles :   Orages  Brouillard  Fortes neiges  Fortes précipitations  Vent > 20 kt






- Altitude de l'aérodrome : 9 ft
- Code IATA : BDR


KBDR - Igor I Sikorsky Memorial

DERNIER METAR :
  • 201552Z 32010KT 10SM OVC033 06/01 A2992 RMK AO2 SLP131 T00560011

METARs EXPIRÉS :
  • 201531Z 35011KT 10SM FEW027 OVC033 06/01 A2992 RMK AO2 T00560011
  • 201452Z 34009KT 10SM BKN027 OVC035 05/01 A2992 RMK AO2 SLP130 T00500011 51009
  • 201434Z 33009KT 10SM BKN025 OVC037 05/01 A2991 RMK AO2 T00500011
  • 201352Z 34012KT 10SM OVC040 05/01 A2991 RMK AO2 SLP127 T00500011

TAF KBDR
Valide du 20 à 15h jusqu'au 21 à 12h UTC


201512Z 2015/2112 34010KT P6SM VCSH FEW015 BKN025 OVC035
TEMPO 2016/2019 SCT025 OVC035
FM201900 33013G22KT P6SM VCSH BKN040 BKN070
FM210300 33010KT P6SM FEW060 FEW090
FM211000 34010KT P6SM FEW150



MET'MAP, la Météo Aéronautique d'un coup d'oeil ! - Copyright ORBIFLY Décembre 2007 - Disclaimer

ORBIFLY MET'MAP TEAM :

Programmation & Développement : Alexandra Zaïnal
Conception & Développement : Baudouin d'Aumeries
Co-Programmation & Développement : Marc-Olivier Méhu
Soutien technique & logistique : Manuel Goepfert

Contact : metmap@orbifly.com




SOURCES & CREDITS :

   NOAA       Earth
Advisory